sensor_id;sensor_type;location;lat;lon;timestamp;pressure;altitude;pressure_sealevel;temperature;humidity
51313;BME280;37397;53.226;10.400;2023-01-26T00:01:19;102002.00;;;2.02;70.30
51313;BME280;37397;53.226;10.400;2023-01-26T00:03:46;101998.38;;;2.02;70.49
51313;BME280;37397;53.226;10.400;2023-01-26T00:06:15;101999.16;;;2.02;70.56
51313;BME280;37397;53.226;10.400;2023-01-26T00:08:47;101996.34;;;2.02;70.69
51313;BME280;37397;53.226;10.400;2023-01-26T00:11:17;101996.34;;;2.02;70.51
51313;BME280;37397;53.226;10.400;2023-01-26T00:13:44;101989.09;;;2.01;70.54
51313;BME280;37397;53.226;10.400;2023-01-26T00:16:12;101987.91;;;2.02;70.49
51313;BME280;37397;53.226;10.400;2023-01-26T00:18:40;101980.66;;;2.01;70.50
51313;BME280;37397;53.226;10.400;2023-01-26T00:21:10;101990.72;;;2.02;70.67
51313;BME280;37397;53.226;10.400;2023-01-26T00:23:37;101987.13;;;2.02;70.54
51313;BME280;37397;53.226;10.400;2023-01-26T00:26:08;101981.47;;;2.02;70.60
51313;BME280;37397;53.226;10.400;2023-01-26T00:28:36;101982.66;;;2.00;70.61
51313;BME280;37397;53.226;10.400;2023-01-26T00:31:06;101981.88;;;2.00;70.45
51313;BME280;37397;53.226;10.400;2023-01-26T00:33:35;101983.47;;;2.01;70.63
51313;BME280;37397;53.226;10.400;2023-01-26T00:36:01;101962.94;;;1.97;70.64
51313;BME280;37397;53.226;10.400;2023-01-26T00:38:28;101973.03;;;2.02;70.62
51313;BME280;37397;53.226;10.400;2023-01-26T00:40:54;101975.03;;;2.01;70.66
51313;BME280;37397;53.226;10.400;2023-01-26T00:43:21;101967.34;;;1.98;70.63
51313;BME280;37397;53.226;10.400;2023-01-26T00:45:50;101973.84;;;2.02;70.79
51313;BME280;37397;53.226;10.400;2023-01-26T00:48:18;101977.84;;;2.01;70.57
51313;BME280;37397;53.226;10.400;2023-01-26T00:50:44;101968.19;;;1.98;70.68
51313;BME280;37397;53.226;10.400;2023-01-26T00:53:11;101957.72;;;1.99;70.79
51313;BME280;37397;53.226;10.400;2023-01-26T00:55:37;101961.78;;;2.02;70.67
51313;BME280;37397;53.226;10.400;2023-01-26T00:58:06;101958.97;;;2.02;70.84
51313;BME280;37397;53.226;10.400;2023-01-26T01:00:35;101967.41;;;2.02;70.66
51313;BME280;37397;53.226;10.400;2023-01-26T01:03:04;101968.19;;;2.02;70.64
51313;BME280;37397;53.226;10.400;2023-01-26T01:05:31;101956.16;;;2.02;70.72
51313;BME280;37397;53.226;10.400;2023-01-26T01:07:58;101952.50;;;2.01;70.89
51313;BME280;37397;53.226;10.400;2023-01-26T01:10:26;101950.50;;;2.02;70.80
51313;BME280;37397;53.226;10.400;2023-01-26T01:12:54;101940.03;;;2.02;70.79
51313;BME280;37397;53.226;10.400;2023-01-26T01:15:22;101944.06;;;2.01;70.63
51313;BME280;37397;53.226;10.400;2023-01-26T01:17:49;101941.25;;;2.01;70.89
51313;BME280;37397;53.226;10.400;2023-01-26T01:20:16;101933.63;;;2.02;70.90
51313;BME280;37397;53.226;10.400;2023-01-26T01:22:42;101936.84;;;2.00;70.69
51313;BME280;37397;53.226;10.400;2023-01-26T01:25:09;101934.41;;;2.02;70.96
51313;BME280;37397;53.226;10.400;2023-01-26T01:27:36;101928.78;;;2.02;70.84
51313;BME280;37397;53.226;10.400;2023-01-26T01:30:03;101928.78;;;2.02;70.91
51313;BME280;37397;53.226;10.400;2023-01-26T01:32:36;101934.41;;;2.02;70.67
51313;BME280;37397;53.226;10.400;2023-01-26T01:35:05;101933.63;;;2.02;70.69
51313;BME280;37397;53.226;10.400;2023-01-26T01:37:32;101927.16;;;2.01;70.65
51313;BME280;37397;53.226;10.400;2023-01-26T01:39:59;101925.97;;;2.02;70.75
51313;BME280;37397;53.226;10.400;2023-01-26T01:42:25;101928.78;;;2.02;70.78
51313;BME280;37397;53.226;10.400;2023-01-26T01:45:27;101925.56;;;2.00;70.69
51313;BME280;37397;53.226;10.400;2023-01-26T01:48:02;101920.72;;;1.97;70.71
51313;BME280;37397;53.226;10.400;2023-01-26T01:50:33;101925.97;;;2.02;70.77
51313;BME280;37397;53.226;10.400;2023-01-26T01:53:02;101915.88;;;1.94;70.81
51313;BME280;37397;53.226;10.400;2023-01-26T01:55:29;101918.31;;;1.99;70.95
51313;BME280;37397;53.226;10.400;2023-01-26T01:57:58;101921.53;;;2.01;71.07
51313;BME280;37397;53.226;10.400;2023-01-26T02:00:27;101921.94;;;1.99;70.87
51313;BME280;37397;53.226;10.400;2023-01-26T02:03:01;101919.94;;;2.00;70.48
51313;BME280;37397;53.226;10.400;2023-01-26T02:05:50;101923.56;;;2.00;70.74
51313;BME280;37397;53.226;10.400;2023-01-26T02:08:18;101910.28;;;2.01;70.84
51313;BME280;37397;53.226;10.400;2023-01-26T02:10:48;101898.19;;;1.97;70.77
51313;BME280;37397;53.226;10.400;2023-01-26T02:13:16;101902.22;;;1.99;70.85
51313;BME280;37397;53.226;10.400;2023-01-26T02:15:43;101903.03;;;2.00;70.77
51313;BME280;37397;53.226;10.400;2023-01-26T02:18:10;101898.59;;;1.99;71.00
51313;BME280;37397;53.226;10.400;2023-01-26T02:20:49;101901.41;;;1.99;70.98
51313;BME280;37397;53.226;10.400;2023-01-26T02:28:16;101895.78;;;1.99;70.80
51313;BME280;37397;53.226;10.400;2023-01-26T02:30:44;101893.78;;;1.99;70.86
51313;BME280;37397;53.226;10.400;2023-01-26T02:33:18;101893.78;;;1.99;70.87
51313;BME280;37397;53.226;10.400;2023-01-26T02:35:44;101885.31;;;1.99;70.86
51313;BME280;37397;53.226;10.400;2023-01-26T02:38:11;101888.53;;;1.98;70.80
51313;BME280;37397;53.226;10.400;2023-01-26T02:40:43;101881.31;;;2.00;70.83
51313;BME280;37397;53.226;10.400;2023-01-26T02:43:14;101882.09;;;1.97;70.86
51313;BME280;37397;53.226;10.400;2023-01-26T02:45:41;101877.28;;;1.98;70.93
51313;BME280;37397;53.226;10.400;2023-01-26T02:48:08;101880.53;;;2.00;70.88
51313;BME280;37397;53.226;10.400;2023-01-26T02:50:35;101888.53;;;1.98;70.82
51313;BME280;37397;53.226;10.400;2023-01-26T02:53:02;101875.69;;;2.00;70.86
51313;BME280;37397;53.226;10.400;2023-01-26T02:55:29;101873.66;;;2.01;70.85
51313;BME280;37397;53.226;10.400;2023-01-26T02:58:01;101874.91;;;2.00;70.79
51313;BME280;37397;53.226;10.400;2023-01-26T03:00:33;101866.44;;;2.00;70.80
51313;BME280;37397;53.226;10.400;2023-01-26T03:03:08;101869.25;;;2.00;70.89
51313;BME280;37397;53.226;10.400;2023-01-26T03:05:37;101871.25;;;1.99;70.89
51313;BME280;37397;53.226;10.400;2023-01-26T03:08:04;101867.63;;;1.99;70.88
51313;BME280;37397;53.226;10.400;2023-01-26T03:10:35;101862.81;;;1.96;70.87
51313;BME280;37397;53.226;10.400;2023-01-26T03:13:02;101866.44;;;2.00;70.93
51313;BME280;37397;53.226;10.400;2023-01-26T03:15:31;101874.91;;;2.00;70.92
51313;BME280;37397;53.226;10.400;2023-01-26T03:18:12;101868.03;;;1.97;71.03
51313;BME280;37397;53.226;10.400;2023-01-26T03:20:58;101866.00;;;1.98;70.92
51313;BME280;37397;53.226;10.400;2023-01-26T03:23:44;101870.06;;;1.97;70.88
51313;BME280;37397;53.226;10.400;2023-01-26T03:26:31;101862.00;;;1.99;70.96
51313;BME280;37397;53.226;10.400;2023-01-26T03:29:17;101854.75;;;1.94;71.12
51313;BME280;37397;53.226;10.400;2023-01-26T03:31:45;101864.81;;;1.99;71.01
51313;BME280;37397;53.226;10.400;2023-01-26T03:34:11;101854.34;;;1.96;71.07
51313;BME280;37397;53.226;10.400;2023-01-26T03:36:38;101858.00;;;2.00;70.93
51313;BME280;37397;53.226;10.400;2023-01-26T03:39:10;101865.63;;;1.99;71.07
51313;BME280;37397;53.226;10.400;2023-01-26T03:41:57;101862.00;;;1.99;71.21
51313;BME280;37397;53.226;10.400;2023-01-26T03:44:42;101865.63;;;1.99;71.04
51313;BME280;37397;53.226;10.400;2023-01-26T03:47:27;101860.00;;;1.99;71.15
51313;BME280;37397;53.226;10.400;2023-01-26T03:50:13;101862.00;;;1.99;70.90
51313;BME280;37397;53.226;10.400;2023-01-26T03:52:58;101860.00;;;1.99;71.08
51313;BME280;37397;53.226;10.400;2023-01-26T03:55:43;101859.19;;;1.95;70.98
51313;BME280;37397;53.226;10.400;2023-01-26T03:58:28;101862.00;;;1.99;71.04
51313;BME280;37397;53.226;10.400;2023-01-26T04:00:58;101859.19;;;1.99;71.13
51313;BME280;37397;53.226;10.400;2023-01-26T04:03:25;101862.00;;;1.99;71.23
51313;BME280;37397;53.226;10.400;2023-01-26T04:06:10;101868.44;;;1.99;71.06
51313;BME280;37397;53.226;10.400;2023-01-26T04:08:56;101862.81;;;1.96;71.17
51313;BME280;37397;53.226;10.400;2023-01-26T04:11:22;101861.22;;;1.98;71.16
51313;BME280;37397;53.226;10.400;2023-01-26T04:13:49;101858.00;;;2.00;71.22
51313;BME280;37397;53.226;10.400;2023-01-26T04:16:34;101853.56;;;1.99;71.24
51313;BME280;37397;53.226;10.400;2023-01-26T04:19:19;101856.38;;;1.99;71.29
51313;BME280;37397;53.226;10.400;2023-01-26T04:22:05;101851.94;;;1.98;71.28
51313;BME280;37397;53.226;10.400;2023-01-26T04:24:33;101844.31;;;1.95;71.12
51313;BME280;37397;53.226;10.400;2023-01-26T04:27:00;101853.56;;;1.99;71.16
51313;BME280;37397;53.226;10.400;2023-01-26T04:29:32;101846.31;;;1.98;71.15
51313;BME280;37397;53.226;10.400;2023-01-26T04:31:59;101842.69;;;2.01;70.98
51313;BME280;37397;53.226;10.400;2023-01-26T04:34:26;101839.09;;;1.97;71.30
51313;BME280;37397;53.226;10.400;2023-01-26T04:36:53;101842.69;;;2.01;71.24
51313;BME280;37397;53.226;10.400;2023-01-26T04:39:23;101838.28;;;2.00;71.06
51313;BME280;37397;53.226;10.400;2023-01-26T04:41:53;101843.53;;;2.02;71.16
51313;BME280;37397;53.226;10.400;2023-01-26T04:44:19;101837.91;;;2.02;71.18
51313;BME280;37397;53.226;10.400;2023-01-26T04:46:47;101837.50;;;2.03;71.26
51313;BME280;37397;53.226;10.400;2023-01-26T04:49:14;101832.28;;;2.02;71.23
51313;BME280;37397;53.226;10.400;2023-01-26T04:51:41;101829.03;;;1.99;71.29
51313;BME280;37397;53.226;10.400;2023-01-26T04:54:08;101827.44;;;2.02;71.09
51313;BME280;37397;53.226;10.400;2023-01-26T04:56:38;101828.22;;;2.03;71.21
51313;BME280;37397;53.226;10.400;2023-01-26T04:59:06;101823.44;;;2.03;71.21
51313;BME280;37397;53.226;10.400;2023-01-26T05:01:34;101815.38;;;2.02;71.30
51313;BME280;37397;53.226;10.400;2023-01-26T05:04:05;101812.16;;;2.03;71.09
51313;BME280;37397;53.226;10.400;2023-01-26T05:06:32;101808.13;;;2.00;71.25
51313;BME280;37397;53.226;10.400;2023-01-26T05:08:59;101820.19;;;2.01;71.15
51313;BME280;37397;53.226;10.400;2023-01-26T05:11:26;101810.53;;;2.02;71.39
51313;BME280;37397;53.226;10.400;2023-01-26T05:13:52;101807.34;;;2.00;71.16
51313;BME280;37397;53.226;10.400;2023-01-26T05:16:25;101818.59;;;2.04;71.36
51313;BME280;37397;53.226;10.400;2023-01-26T05:19:26;101823.44;;;2.03;71.19
51313;BME280;37397;53.226;10.400;2023-01-26T05:22:13;101808.91;;;2.01;71.18
51313;BME280;37397;53.226;10.400;2023-01-26T05:24:50;101817.78;;;2.03;71.37
51313;BME280;37397;53.226;10.400;2023-01-26T05:27:30;101804.13;;;2.02;71.38
51313;BME280;37397;53.226;10.400;2023-01-26T05:29:58;101816.97;;;2.03;71.30
51313;BME280;37397;53.226;10.400;2023-01-26T05:32:28;101816.97;;;2.03;71.25
51313;BME280;37397;53.226;10.400;2023-01-26T05:34:56;101806.53;;;2.03;71.24
51313;BME280;37397;53.226;10.400;2023-01-26T05:37:24;101816.56;;;2.04;71.32
51313;BME280;37397;53.226;10.400;2023-01-26T05:39:51;101812.16;;;2.03;71.28
51313;BME280;37397;53.226;10.400;2023-01-26T05:42:19;101810.53;;;2.02;71.27
51313;BME280;37397;53.226;10.400;2023-01-26T05:45:15;101816.19;;;2.02;71.33
51313;BME280;37397;53.226;10.400;2023-01-26T05:47:44;101821.00;;;2.05;71.34
51313;BME280;37397;53.226;10.400;2023-01-26T05:50:11;101816.56;;;2.04;71.31
51313;BME280;37397;53.226;10.400;2023-01-26T05:52:41;101821.81;;;2.06;71.31
51313;BME280;37397;53.226;10.400;2023-01-26T05:55:09;101817.78;;;2.03;71.36
51313;BME280;37397;53.226;10.400;2023-01-26T05:57:35;101826.66;;;2.05;71.36
51313;BME280;37397;53.226;10.400;2023-01-26T06:00:05;101817.78;;;2.03;71.54
51313;BME280;37397;53.226;10.400;2023-01-26T06:02:39;101818.19;;;2.05;71.45
51313;BME280;37397;53.226;10.400;2023-01-26T06:05:09;101825.44;;;2.06;71.52
51313;BME280;37397;53.226;10.400;2023-01-26T06:07:36;101824.22;;;2.07;71.54
51313;BME280;37397;53.226;10.400;2023-01-26T06:10:16;101813.34;;;2.02;71.41
51313;BME280;37397;53.226;10.400;2023-01-26T06:12:59;101816.56;;;2.04;71.29
51313;BME280;37397;53.226;10.400;2023-01-26T06:15:37;101823.81;;;2.05;71.40
51313;BME280;37397;53.226;10.400;2023-01-26T06:18:04;101831.47;;;2.08;71.38
51313;BME280;37397;53.226;10.400;2023-01-26T06:20:31;101823.03;;;2.08;71.50
51313;BME280;37397;53.226;10.400;2023-01-26T06:22:59;101821.00;;;2.05;71.26
51313;BME280;37397;53.226;10.400;2023-01-26T06:25:29;101830.25;;;2.09;71.42
51313;BME280;37397;53.226;10.400;2023-01-26T06:27:57;101830.25;;;2.09;71.39
51313;BME280;37397;53.226;10.400;2023-01-26T06:30:25;101830.25;;;2.06;71.43
51313;BME280;37397;53.226;10.400;2023-01-26T06:32:57;101832.28;;;2.09;71.53
51313;BME280;37397;53.226;10.400;2023-01-26T06:35:26;101834.69;;;2.10;71.48
51313;BME280;37397;53.226;10.400;2023-01-26T06:37:56;101830.25;;;2.09;71.40
51313;BME280;37397;53.226;10.400;2023-01-26T06:40:22;101838.31;;;2.11;71.38
51313;BME280;37397;53.226;10.400;2023-01-26T06:42:49;101849.56;;;2.11;71.32
51313;BME280;37397;53.226;10.400;2023-01-26T06:45:18;101847.59;;;2.11;71.48
51313;BME280;37397;53.226;10.400;2023-01-26T06:47:48;101851.59;;;2.07;71.59
51313;BME280;37397;53.226;10.400;2023-01-26T06:50:18;101851.59;;;2.10;71.54
51313;BME280;37397;53.226;10.400;2023-01-26T06:52:47;101847.16;;;2.09;71.48
51313;BME280;37397;53.226;10.400;2023-01-26T06:55:35;101843.53;;;2.09;71.43
51313;BME280;37397;53.226;10.400;2023-01-26T06:58:25;101836.31;;;2.08;71.39
51313;BME280;37397;53.226;10.400;2023-01-26T07:01:16;101850.78;;;2.10;71.32
51313;BME280;37397;53.226;10.400;2023-01-26T07:03:43;101848.38;;;2.08;71.42
51313;BME280;37397;53.226;10.400;2023-01-26T07:06:10;101849.56;;;2.11;71.56
51313;BME280;37397;53.226;10.400;2023-01-26T07:08:37;101854.81;;;2.12;71.49
51313;BME280;37397;53.226;10.400;2023-01-26T07:11:04;101842.75;;;2.08;71.47
51313;BME280;37397;53.226;10.400;2023-01-26T07:13:34;101862.06;;;2.13;71.63
51313;BME280;37397;53.226;10.400;2023-01-26T07:18:27;101858.84;;;2.15;71.32
51313;BME280;37397;53.226;10.400;2023-01-26T07:20:53;101856.03;;;2.15;71.71
51313;BME280;37397;53.226;10.400;2023-01-26T07:23:24;101854.00;;;2.15;71.59
51313;BME280;37397;53.226;10.400;2023-01-26T07:25:51;101858.47;;;2.16;71.68
51313;BME280;37397;53.226;10.400;2023-01-26T07:28:17;101854.00;;;2.15;71.43
51313;BME280;37397;53.226;10.400;2023-01-26T07:30:44;101856.84;;;2.15;71.54
51313;BME280;37397;53.226;10.400;2023-01-26T07:33:10;101855.63;;;2.16;71.72
51313;BME280;37397;53.226;10.400;2023-01-26T07:35:37;101854.84;;;2.16;71.78
51313;BME280;37397;53.226;10.400;2023-01-26T07:38:04;101851.63;;;2.17;71.62
51313;BME280;37397;53.226;10.400;2023-01-26T07:40:30;101854.84;;;2.19;71.63
51313;BME280;37397;53.226;10.400;2023-01-26T07:42:57;101848.41;;;2.19;71.77
51313;BME280;37397;53.226;10.400;2023-01-26T07:45:47;101842.34;;;2.17;71.43
51313;BME280;37397;53.226;10.400;2023-01-26T07:48:17;101846.00;;;2.17;71.81
51313;BME280;37397;53.226;10.400;2023-01-26T07:50:45;101847.19;;;2.20;71.68
51313;BME280;37397;53.226;10.400;2023-01-26T07:53:13;101850.00;;;2.20;71.86
51313;BME280;37397;53.226;10.400;2023-01-26T07:55:40;101840.38;;;2.17;71.75
51313;BME280;37397;53.226;10.400;2023-01-26T07:58:10;101847.19;;;2.20;71.73
51313;BME280;37397;53.226;10.400;2023-01-26T08:00:37;101852.44;;;2.22;71.66
51313;BME280;37397;53.226;10.400;2023-01-26T08:03:03;101852.44;;;2.22;71.71
51313;BME280;37397;53.226;10.400;2023-01-26T08:05:31;101850.81;;;2.21;71.71
51313;BME280;37397;53.226;10.400;2023-01-26T08:07:59;101847.59;;;2.18;71.90
51313;BME280;37397;53.226;10.400;2023-01-26T08:10:26;101846.41;;;2.19;71.70
51313;BME280;37397;53.226;10.400;2023-01-26T08:12:58;101850.81;;;2.21;71.72
51313;BME280;37397;53.226;10.400;2023-01-26T08:15:26;101848.41;;;2.23;71.66
51313;BME280;37397;53.226;10.400;2023-01-26T08:17:53;101857.28;;;2.21;71.68
51313;BME280;37397;53.226;10.400;2023-01-26T08:20:21;101866.13;;;2.23;71.33
51313;BME280;37397;53.226;10.400;2023-01-26T08:22:47;101864.09;;;2.24;71.75
51313;BME280;37397;53.226;10.400;2023-01-26T08:25:14;101868.53;;;2.25;71.63
51313;BME280;37397;53.226;10.400;2023-01-26T08:27:40;101872.97;;;2.26;71.77
51313;BME280;37397;53.226;10.400;2023-01-26T08:30:07;101866.91;;;2.24;71.57
51313;BME280;37397;53.226;10.400;2023-01-26T08:32:34;101865.72;;;2.25;71.70
51313;BME280;37397;53.226;10.400;2023-01-26T08:35:01;101871.75;;;2.27;71.71
51313;BME280;37397;53.226;10.400;2023-01-26T08:37:27;101866.94;;;2.27;71.64
51313;BME280;37397;53.226;10.400;2023-01-26T08:39:54;101813.34;;;1.95;71.33
51313;BME280;37397;53.226;10.400;2023-01-26T08:42:20;101848.81;;;2.25;71.77
51313;BME280;37397;53.226;10.400;2023-01-26T08:44:48;101854.84;;;2.27;71.62
51313;BME280;37397;53.226;10.400;2023-01-26T08:47:14;101841.56;;;2.24;71.86
51313;BME280;37397;53.226;10.400;2023-01-26T08:49:41;101858.09;;;2.29;71.75
51313;BME280;37397;53.226;10.400;2023-01-26T08:52:07;101855.69;;;2.27;71.80
51313;BME280;37397;53.226;10.400;2023-01-26T08:54:34;101854.44;;;2.25;71.72
51313;BME280;37397;53.226;10.400;2023-01-26T08:57:00;101866.16;;;2.30;71.67
51313;BME280;37397;53.226;10.400;2023-01-26T08:59:27;101872.59;;;2.31;71.91
51313;BME280;37397;53.226;10.400;2023-01-26T09:01:53;101864.91;;;2.28;72.01
51313;BME280;37397;53.226;10.400;2023-01-26T09:04:21;101872.97;;;2.33;71.86
51313;BME280;37397;53.226;10.400;2023-01-26T09:06:47;101870.16;;;2.33;71.80
51313;BME280;37397;53.226;10.400;2023-01-26T09:09:14;101881.44;;;2.33;71.83
51313;BME280;37397;53.226;10.400;2023-01-26T09:11:40;101873.78;;;2.33;71.86
51313;BME280;37397;53.226;10.400;2023-01-26T09:14:07;101881.84;;;2.35;71.94
51313;BME280;37397;53.226;10.400;2023-01-26T09:16:33;101875.81;;;2.36;71.90
51313;BME280;37397;53.226;10.400;2023-01-26T09:19:00;101870.16;;;2.36;71.96
51313;BME280;37397;53.226;10.400;2023-01-26T09:21:26;101870.16;;;2.36;72.10
51313;BME280;37397;53.226;10.400;2023-01-26T09:23:54;101866.56;;;2.32;71.61
51313;BME280;37397;53.226;10.400;2023-01-26T09:26:21;101875.81;;;2.36;71.91
51313;BME280;37397;53.226;10.400;2023-01-26T09:28:50;101879.84;;;2.39;71.80
51313;BME280;37397;53.226;10.400;2023-01-26T09:31:17;101882.66;;;2.39;71.86
51313;BME280;37397;53.226;10.400;2023-01-26T09:33:44;101875.41;;;2.38;71.89
51313;BME280;37397;53.226;10.400;2023-01-26T09:36:11;101881.47;;;2.40;71.86
51313;BME280;37397;53.226;10.400;2023-01-26T09:38:38;101884.69;;;2.42;71.75
51313;BME280;37397;53.226;10.400;2023-01-26T09:44:02;101879.44;;;2.37;71.91
51313;BME280;37397;53.226;10.400;2023-01-26T09:46:45;101876.63;;;2.37;71.90
51313;BME280;37397;53.226;10.400;2023-01-26T09:49:28;101874.22;;;2.39;71.92
51313;BME280;37397;53.226;10.400;2023-01-26T09:51:58;101868.19;;;2.41;72.00
51313;BME280;37397;53.226;10.400;2023-01-26T09:54:38;101873.81;;;2.41;71.97
51313;BME280;37397;53.226;10.400;2023-01-26T09:57:19;101863.75;;;2.40;72.02
51313;BME280;37397;53.226;10.400;2023-01-26T10:00:05;101863.78;;;2.43;72.13
51313;BME280;37397;53.226;10.400;2023-01-26T10:05:26;101859.72;;;2.44;72.11
51313;BME280;37397;53.226;10.400;2023-01-26T10:08:01;101858.94;;;2.47;72.01
51313;BME280;37397;53.226;10.400;2023-01-26T10:10:33;101854.91;;;2.48;72.17
51313;BME280;37397;53.226;10.400;2023-01-26T10:13:01;101845.25;;;2.46;72.18
51313;BME280;37397;53.226;10.400;2023-01-26T10:15:30;101849.69;;;2.50;72.19
51313;BME280;37397;53.226;10.400;2023-01-26T10:18:03;101843.66;;;2.52;72.23
51313;BME280;37397;53.226;10.400;2023-01-26T10:20:35;101839.22;;;2.54;72.24
51313;BME280;37397;53.226;10.400;2023-01-26T10:23:11;101831.56;;;2.51;72.21
51313;BME280;37397;53.226;10.400;2023-01-26T10:25:43;101834.00;;;2.57;72.22
51313;BME280;37397;53.226;10.400;2023-01-26T10:28:16;101837.22;;;2.59;72.21
51313;BME280;37397;53.226;10.400;2023-01-26T10:30:45;101827.56;;;2.60;72.34
51313;BME280;37397;53.226;10.400;2023-01-26T10:33:26;101823.91;;;2.59;72.21
51313;BME280;37397;53.226;10.400;2023-01-26T10:35:53;101819.09;;;2.63;72.30
51313;BME280;37397;53.226;10.400;2023-01-26T10:40:54;101821.91;;;2.67;72.28
51313;BME280;37397;53.226;10.400;2023-01-26T10:43:23;101817.91;;;2.68;72.48
51313;BME280;37397;53.226;10.400;2023-01-26T10:45:49;101819.53;;;2.69;72.17
51313;BME280;37397;53.226;10.400;2023-01-26T10:48:22;101818.28;;;2.70;72.28
51313;BME280;37397;53.226;10.400;2023-01-26T10:50:49;101825.56;;;2.71;72.34
51313;BME280;37397;53.226;10.400;2023-01-26T10:53:26;101819.53;;;2.72;72.36
51313;BME280;37397;53.226;10.400;2023-01-26T10:56:00;101804.19;;;2.70;72.42
51313;BME280;37397;53.226;10.400;2023-01-26T10:58:48;101813.06;;;2.76;72.28
51313;BME280;37397;53.226;10.400;2023-01-26T11:01:17;101821.13;;;2.77;72.06
51313;BME280;37397;53.226;10.400;2023-01-26T11:04:11;101813.47;;;2.74;72.49
51313;BME280;37397;53.226;10.400;2023-01-26T11:06:40;101803.41;;;2.73;72.29
51313;BME280;37397;53.226;10.400;2023-01-26T11:09:16;101814.69;;;2.80;72.21
51313;BME280;37397;53.226;10.400;2023-01-26T11:11:57;101819.50;;;2.80;72.19
51313;BME280;37397;53.226;10.400;2023-01-26T11:14:24;101810.66;;;2.81;72.23
51313;BME280;37397;53.226;10.400;2023-01-26T11:17:14;101806.63;;;2.82;72.25
51313;BME280;37397;53.226;10.400;2023-01-26T11:22:44;101813.06;;;2.86;72.36
51313;BME280;37397;53.226;10.400;2023-01-26T11:25:21;101800.16;;;2.82;72.23
51313;BME280;37397;53.226;10.400;2023-01-26T11:30:53;101794.94;;;2.87;72.22
51313;BME280;37397;53.226;10.400;2023-01-26T11:33:35;101794.94;;;2.91;72.25
51313;BME280;37397;53.226;10.400;2023-01-26T11:36:18;101798.56;;;2.88;72.17
51313;BME280;37397;53.226;10.400;2023-01-26T11:39:18;101792.50;;;2.89;72.18
51313;BME280;37397;53.226;10.400;2023-01-26T11:41:56;101780.03;;;2.90;72.09
51313;BME280;37397;53.226;10.400;2023-01-26T11:50:32;101766.34;;;2.92;72.34
51313;BME280;37397;53.226;10.400;2023-01-26T11:59:16;101760.69;;;2.96;72.30
51313;BME280;37397;53.226;10.400;2023-01-26T12:01:58;101768.34;;;2.99;72.32
51313;BME280;37397;53.226;10.400;2023-01-26T12:04:31;101764.69;;;3.02;72.20
51313;BME280;37397;53.226;10.400;2023-01-26T12:07:10;101750.63;;;2.99;72.09
51313;BME280;37397;53.226;10.400;2023-01-26T12:09:44;101763.09;;;3.05;72.31
51313;BME280;37397;53.226;10.400;2023-01-26T12:12:20;101762.72;;;3.03;72.31
51313;BME280;37397;53.226;10.400;2023-01-26T12:20:04;101746.56;;;3.10;72.15
51313;BME280;37397;53.226;10.400;2023-01-26T12:22:41;101739.72;;;3.08;72.35
51313;BME280;37397;53.226;10.400;2023-01-26T12:25:32;101745.38;;;3.08;72.21
51313;BME280;37397;53.226;10.400;2023-01-26T12:28:11;101743.31;;;3.12;71.92
51313;BME280;37397;53.226;10.400;2023-01-26T12:33:21;101728.41;;;3.15;72.29
51313;BME280;37397;53.226;10.400;2023-01-26T12:41:21;101721.16;;;3.18;72.06
51313;BME280;37397;53.226;10.400;2023-01-26T12:44:13;101715.13;;;3.19;72.35
51313;BME280;37397;53.226;10.400;2023-01-26T12:46:49;101721.97;;;3.18;72.23
51313;BME280;37397;53.226;10.400;2023-01-26T12:49:23;101724.38;;;3.20;72.11
51313;BME280;37397;53.226;10.400;2023-01-26T12:51:59;101721.97;;;3.18;71.99
51313;BME280;37397;53.226;10.400;2023-01-26T12:54:41;101723.19;;;3.21;72.34
51313;BME280;37397;53.226;10.400;2023-01-26T12:57:19;101713.50;;;3.18;72.18
51313;BME280;37397;53.226;10.400;2023-01-26T12:59:47;101707.44;;;3.23;72.27
51313;BME280;37397;53.226;10.400;2023-01-26T13:04:42;101703.81;;;3.23;72.07
51313;BME280;37397;53.226;10.400;2023-01-26T13:07:37;101703.41;;;3.24;72.28
51313;BME280;37397;53.226;10.400;2023-01-26T13:12:55;101699.38;;;3.25;72.32
51313;BME280;37397;53.226;10.400;2023-01-26T13:15:25;101705.41;;;3.27;72.12
51313;BME280;37397;53.226;10.400;2023-01-26T13:26:20;101721.94;;;3.29;72.31
51313;BME280;37397;53.226;10.400;2023-01-26T13:28:49;101706.63;;;3.26;72.54
51313;BME280;37397;53.226;10.400;2023-01-26T13:31:32;101714.66;;;3.28;72.43
51313;BME280;37397;53.226;10.400;2023-01-26T13:34:02;101705.81;;;3.26;72.36
51313;BME280;37397;53.226;10.400;2023-01-26T13:36:34;101706.63;;;3.26;72.47
51313;BME280;37397;53.226;10.400;2023-01-26T13:39:09;101714.66;;;3.32;72.44
51313;BME280;37397;53.226;10.400;2023-01-26T13:41:43;101707.41;;;3.31;72.36
51313;BME280;37397;53.226;10.400;2023-01-26T13:44:16;101724.34;;;3.31;72.26
51313;BME280;37397;53.226;10.400;2023-01-26T13:46:53;101730.00;;;3.31;72.52
51313;BME280;37397;53.226;10.400;2023-01-26T13:49:41;101730.78;;;3.31;72.37
51313;BME280;37397;53.226;10.400;2023-01-26T13:52:19;101715.50;;;3.28;72.55
51313;BME280;37397;53.226;10.400;2023-01-26T13:54:47;101738.84;;;3.33;72.63
51313;BME280;37397;53.226;10.400;2023-01-26T13:57:25;101734.81;;;3.26;72.48
51313;BME280;37397;53.226;10.400;2023-01-26T13:59:54;101741.66;;;3.33;72.48
51313;BME280;37397;53.226;10.400;2023-01-26T14:02:30;101738.88;;;3.29;72.62
51313;BME280;37397;53.226;10.400;2023-01-26T14:04:59;101743.28;;;3.34;72.55
51313;BME280;37397;53.226;10.400;2023-01-26T14:07:30;101746.09;;;3.34;72.61
51313;BME280;37397;53.226;10.400;2023-01-26T14:09:59;101744.47;;;3.33;72.39
51313;BME280;37397;53.226;10.400;2023-01-26T14:12:44;101740.47;;;3.34;72.50
51313;BME280;37397;53.226;10.400;2023-01-26T14:15:30;101742.88;;;3.32;72.70